Time;durP1;ratioP1;P1;durP2;ratioP2;P2;SDS_P1;SDS_P2;PMS_P1;PMS_P2;Temp;Humidity;BMP_temperature;BMP_pressure;BME280_temperature;BME280_humidity;BME280_pressure;Samples;Min_cycle;Max_cycle;Signal;HPM_P1;HPM_P2
2023/01/15 00:03:10;;;;;;;1.60;1.50;;;;;;;11.24;57.48;98507.38;10402326;28;20251;-38
2023/01/15 00:08:11;;;;;;;1.90;1.73;;;;;;;10.26;58.85;98449.00;10393092;28;20236;-38
2023/01/15 00:13:13;;;;;;;2.63;1.60;;;;;;;11.36;57.23;98488.72;10402441;28;20232;-38
2023/01/15 00:18:15;;;;;;;2.10;1.97;;;;;;;10.95;56.84;98466.03;10410438;28;20233;-38
2023/01/15 00:27:37;;;;;;;1.90;1.80;;;;;;;11.52;55.95;98494.53;10396529;28;20291;-38
2023/01/15 00:28:38;;;;;;;1.70;1.60;;;;;;;10.19;58.96;98434.84;10405668;28;20243;-38
2023/01/15 00:33:40;;;;;;;2.27;2.17;;;;;;;10.05;57.89;98399.38;10393922;28;20236;-38
2023/01/15 00:38:41;;;;;;;1.70;1.60;;;;;;;12.07;55.08;98496.44;10406788;28;20243;-38
2023/01/15 00:43:43;;;;;;;1.30;1.30;;;;;;;10.51;56.13;98417.78;10386852;28;20676;-38
2023/01/15 00:48:45;;;;;;;2.10;2.00;;;;;;;10.94;57.73;98436.81;10395468;28;20711;-38
2023/01/15 00:53:47;;;;;;;2.33;1.90;;;;;;;11.28;57.50;98446.16;10392050;28;20235;-38
2023/01/15 00:58:48;;;;;;;1.60;1.50;;;;;;;9.78;59.60;98348.72;10408183;28;20262;-38
2023/01/15 01:03:51;;;;;;;2.23;2.03;;;;;;;11.05;56.73;98428.03;10406360;28;20241;-38
2023/01/15 01:08:54;;;;;;;1.83;1.73;;;;;;;12.08;55.59;98453.31;10400288;28;20666;-38
2023/01/15 01:13:56;;;;;;;2.00;1.90;;;;;;;11.31;56.68;98416.25;10399901;28;20328;-38
2023/01/15 01:19:00;;;;;;;1.60;1.50;;;;;;;11.93;56.82;98445.66;10409765;28;20236;-38
2023/01/15 01:24:02;;;;;;;1.80;1.70;;;;;;;10.77;58.70;98386.53;10406935;28;20232;-38
2023/01/15 01:29:04;;;;;;;1.60;1.50;;;;;;;10.33;58.92;98342.84;10395968;28;20266;-38
2023/01/15 01:34:06;;;;;;;1.70;1.60;;;;;;;10.85;60.20;98361.34;10397118;28;20264;-38
2023/01/15 01:39:13;;;;;;;1.83;1.73;;;;;;;10.23;59.54;98332.63;10390512;28;20228;-38
2023/01/15 01:44:33;;;;;;;1.93;1.60;;;;;;;11.34;57.41;98380.16;10394629;28;20236;-38
2023/01/15 01:49:39;;;;;;;1.60;1.60;;;;;;;10.26;60.21;98350.91;10400437;28;20631;-38
2023/01/15 01:54:43;;;;;;;2.00;1.90;;;;;;;10.50;58.83;98319.03;10413972;28;20228;-38
2023/01/15 01:59:46;;;;;;;2.10;2.00;;;;;;;11.49;57.51;98385.16;10398836;28;20237;-38
2023/01/15 02:04:48;;;;;;;1.60;1.50;;;;;;;11.36;57.56;98364.72;10395167;28;20621;-38
2023/01/15 02:09:50;;;;;;;1.80;1.70;;;;;;;11.90;55.58;98376.41;10396316;28;20251;-38
2023/01/15 02:15:02;;;;;;;1.90;1.80;;;;;;;12.16;56.33;98406.56;10403207;28;20229;-37
2023/01/15 02:20:31;;;;;;;2.07;1.93;;;;;;;12.08;55.71;98380.06;10398930;28;20246;-38
2023/01/15 02:25:42;;;;;;;1.90;1.80;;;;;;;9.94;58.95;98253.91;10392609;28;20257;-38
2023/01/15 02:30:56;;;;;;;1.93;1.83;;;;;;;9.90;60.51;98272.22;10395547;28;20628;-38
2023/01/15 02:36:05;;;;;;;1.70;1.60;;;;;;;11.64;58.28;98353.44;10389777;28;20579;-38
2023/01/15 02:41:15;;;;;;;1.80;1.70;;;;;;;11.20;58.37;98307.22;10388740;28;20236;-38
2023/01/15 02:46:20;;;;;;;1.80;1.80;;;;;;;10.97;57.91;98287.31;10388004;28;20239;-38
2023/01/15 02:51:33;;;;;;;1.40;1.40;;;;;;;11.35;56.76;98280.03;10406742;28;20240;-38
2023/01/15 02:56:38;;;;;;;2.00;1.90;;;;;;;11.49;57.05;98307.47;10387970;28;20243;-38
2023/01/15 03:01:45;;;;;;;1.40;1.30;;;;;;;12.48;56.22;98342.75;10390016;28;20613;-38
2023/01/15 03:07:10;;;;;;;1.40;1.40;;;;;;;11.80;56.35;98293.88;10393148;28;20645;-38
2023/01/15 03:12:28;;;;;;;1.87;1.77;;;;;;;11.56;56.64;98302.84;10387439;28;20232;-38
2023/01/15 03:17:54;;;;;;;1.37;1.30;;;;;;;13.04;54.44;98372.75;10398634;28;20224;-38
2023/01/15 03:23:02;;;;;;;1.73;1.63;;;;;;;13.07;54.01;98361.53;10401694;28;20240;-38
2023/01/15 03:28:06;;;;;;;1.90;1.80;;;;;;;12.73;54.06;98350.56;10399415;28;20243;-38
2023/01/15 03:33:14;;;;;;;2.00;1.80;;;;;;;11.89;56.72;98379.31;10398139;28;20238;-38
2023/01/15 03:38:20;;;;;;;1.87;1.77;;;;;;;11.27;58.04;98342.75;10401084;28;20318;-38
2023/01/15 03:43:41;;;;;;;1.80;1.70;;;;;;;11.40;56.57;98377.41;10392416;28;20228;-38
2023/01/15 03:49:01;;;;;;;1.43;1.43;;;;;;;12.06;54.23;98414.34;10401539;28;20241;-38
2023/01/15 03:54:08;;;;;;;1.60;1.60;;;;;;;10.51;56.46;98417.78;10401147;28;20229;-38
2023/01/15 03:59:20;;;;;;;1.33;1.30;;;;;;;10.70;54.65;98391.91;10399407;28;20283;-38
2023/01/15 04:04:25;;;;;;;1.40;1.40;;;;;;;10.73;54.82;98393.34;10403391;28;20228;-38
2023/01/15 04:09:27;;;;;;;1.70;1.60;;;;;;;11.63;53.31;98429.53;10405159;28;20651;-38
2023/01/15 04:14:29;;;;;;;1.37;1.37;;;;;;;9.83;54.29;98402.34;10402744;28;20242;-38
2023/01/15 04:19:31;;;;;;;1.40;1.40;;;;;;;11.11;53.18;98463.84;10387499;28;20240;-38
2023/01/15 04:24:33;;;;;;;1.70;1.70;;;;;;;10.43;54.56;98473.38;10399813;28;20308;-38
2023/01/15 04:29:34;;;;;;;1.50;1.50;;;;;;;10.72;53.19;98461.25;10402533;28;20614;-39
2023/01/15 04:34:36;;;;;;;1.63;1.63;;;;;;;11.47;52.34;98481.81;10405840;28;20476;-38
2023/01/15 04:39:38;;;;;;;1.50;1.40;;;;;;;10.75;53.15;98484.09;10403517;28;20247;-38
2023/01/15 04:44:40;;;;;;;1.50;1.50;;;;;;;10.64;53.08;98509.66;10394121;28;20232;-38
2023/01/15 04:49:41;;;;;;;1.60;1.50;;;;;;;9.34;55.37;98502.53;10399567;28;20244;-38
2023/01/15 04:54:43;;;;;;;1.43;1.33;;;;;;;11.17;52.54;98495.91;10400515;28;20225;-38
2023/01/15 04:59:45;;;;;;;2.07;1.73;;;;;;;9.50;54.24;98528.81;10397112;28;20239;-38
2023/01/15 05:04:46;;;;;;;1.67;1.63;;;;;;;10.17;53.43;98552.69;10411895;28;20243;-38
2023/01/15 05:09:50;;;;;;;1.50;1.50;;;;;;;10.46;51.89;98547.81;10400632;28;20247;-38
2023/01/15 05:14:52;;;;;;;1.43;1.43;;;;;;;10.56;51.98;98561.53;10400329;28;20236;-38
2023/01/15 05:19:53;;;;;;;2.10;2.00;;;;;;;9.84;51.97;98564.31;10395063;28;20254;-38
2023/01/15 05:24:55;;;;;;;1.37;1.37;;;;;;;10.32;52.04;98560.44;10399354;28;20596;-38
2023/01/15 05:29:57;;;;;;;1.40;1.40;;;;;;;8.64;53.88;98537.56;10399551;28;20260;-38
2023/01/15 05:34:58;;;;;;;2.07;1.97;;;;;;;9.10;52.95;98576.06;10390187;28;20221;-38
2023/01/15 05:40:00;;;;;;;1.80;1.70;;;;;;;9.44;53.66;98584.88;10402033;28;20239;-38
2023/01/15 05:45:03;;;;;;;2.07;1.97;;;;;;;7.98;55.21;98524.84;10390278;28;20267;-38
2023/01/15 05:50:05;;;;;;;1.60;1.60;;;;;;;9.07;53.28;98571.13;10401490;28;20528;-38
2023/01/15 05:55:07;;;;;;;1.60;1.60;;;;;;;7.81;55.06;98489.69;10397670;28;20391;-38
2023/01/15 06:00:10;;;;;;;2.17;2.03;;;;;;;8.46;53.99;98600.28;10402453;28;20241;-38
2023/01/15 06:05:13;;;;;;;1.97;1.87;;;;;;;8.72;53.88;98614.72;10397024;28;20239;-38
2023/01/15 06:10:16;;;;;;;1.97;1.77;;;;;;;7.72;55.26;98568.94;10391341;28;20237;-38
2023/01/15 06:15:18;;;;;;;1.77;1.70;;;;;;;8.23;53.64;98651.22;10391538;28;20225;-38
2023/01/15 06:20:19;;;;;;;1.70;1.60;;;;;;;8.32;53.28;98643.06;10390387;28;20246;-38
2023/01/15 06:25:21;;;;;;;1.90;1.80;;;;;;;9.00;52.24;98619.13;10393846;28;20309;-38
2023/01/15 06:30:23;;;;;;;1.87;1.77;;;;;;;8.59;53.07;98660.00;10392999;28;20237;-38
2023/01/15 06:35:25;;;;;;;1.87;1.80;;;;;;;9.39;52.67;98670.94;10391989;28;20232;-38
2023/01/15 06:40:27;;;;;;;1.50;1.50;;;;;;;8.67;53.22;98699.84;10385623;28;20237;-38
2023/01/15 06:50:58;;;;;;;3.10;2.80;;;;;;;7.82;54.86;98689.25;10388965;28;20263;-37
2023/01/15 06:56:00;;;;;;;2.90;2.70;;;;;;;9.36;52.80;98717.53;10390305;28;20605;-37
2023/01/15 07:01:09;;;;;;;2.90;2.40;;;;;;;9.89;51.50;98721.34;10387268;28;20233;-38
2023/01/15 07:06:12;;;;;;;2.20;2.10;;;;;;;10.77;49.70;98706.81;10389693;28;20241;-38
2023/01/15 07:11:14;;;;;;;2.00;1.90;;;;;;;10.66;50.39;98735.81;10386083;28;20222;-37
2023/01/15 07:16:28;;;;;;;2.20;2.10;;;;;;;10.51;50.01;98725.38;10387053;28;20228;-38
2023/01/15 07:21:30;;;;;;;2.10;2.00;;;;;;;9.11;51.68;98792.03;10390152;28;20237;-38
2023/01/15 07:26:32;;;;;;;1.80;1.70;;;;;;;9.11;51.14;98794.69;10401498;28;20631;-37
2023/01/15 07:31:33;;;;;;;3.10;2.30;;;;;;;9.86;50.22;98821.44;10397746;28;20247;-37
2023/01/15 07:36:36;;;;;;;2.30;2.20;;;;;;;10.17;49.84;98793.28;10403270;28;20247;-38
2023/01/15 07:52:20;;;;;;;1.90;1.80;;;;;;;10.76;48.62;98837.06;10398500;28;20282;-37
2023/01/15 07:57:22;;;;;;;2.00;1.90;;;;;;;9.83;49.48;98891.31;10398399;28;20234;-37
2023/01/15 08:02:24;;;;;;;1.93;1.83;;;;;;;10.14;48.46;98825.75;10396951;28;20228;-37
2023/01/15 08:07:26;;;;;;;2.13;2.03;;;;;;;9.40;50.44;98894.22;10390822;28;20245;-37
2023/01/15 08:17:50;;;;;;;2.20;2.07;;;;;;;8.42;50.45;98867.47;10391727;28;20235;-37
2023/01/15 08:22:52;;;;;;;2.77;2.57;;;;;;;9.69;49.60;98890.41;10397536;28;20259;-37
2023/01/15 08:27:54;;;;;;;2.23;2.13;;;;;;;7.68;51.51;98810.81;10391770;28;20733;-37
2023/01/15 08:33:01;;;;;;;2.30;2.20;;;;;;;9.15;49.84;98912.56;10397008;28;20698;-36
2023/01/15 08:38:06;;;;;;;3.10;2.50;;;;;;;8.48;49.93;98912.84;10401073;28;20263;-37
2023/01/15 08:43:07;;;;;;;2.83;2.63;;;;;;;9.57;48.98;98954.28;10395552;28;20236;-37
2023/01/15 08:48:09;;;;;;;2.40;2.30;;;;;;;10.30;47.54;98902.91;10397271;28;20325;-37
2023/01/15 08:53:11;;;;;;;3.70;2.87;;;;;;;10.27;48.36;98919.34;10400439;28;20237;-37
2023/01/15 08:58:13;;;;;;;3.03;2.80;;;;;;;10.21;48.40;98944.25;10400285;28;20241;-37
2023/01/15 09:03:15;;;;;;;2.60;2.40;;;;;;;9.81;48.54;98954.78;10398608;28;20248;-37
2023/01/15 09:08:16;;;;;;;2.20;2.10;;;;;;;9.40;49.16;98993.00;10399627;28;20229;-37
2023/01/15 09:13:20;;;;;;;2.17;2.07;;;;;;;8.88;50.10;98991.59;10394934;28;20229;-37
2023/01/15 09:18:22;;;;;;;2.47;2.37;;;;;;;8.76;50.29;98989.41;10398320;28;20247;-37
2023/01/15 09:23:24;;;;;;;4.30;2.23;;;;;;;10.25;47.74;98974.06;10394014;28;20233;-37
2023/01/15 09:28:29;;;;;;;2.13;1.97;;;;;;;10.28;47.76;99011.94;10391239;28;20245;-37
2023/01/15 09:33:31;;;;;;;2.77;2.20;;;;;;;8.53;49.63;98981.59;10396268;28;20241;-37
2023/01/15 09:38:33;;;;;;;2.50;2.00;;;;;;;10.70;47.34;99027.88;10385926;28;20238;-37
2023/01/15 09:43:51;;;;;;;2.30;2.10;;;;;;;8.79;49.92;99025.53;10396750;28;20245;-37
2023/01/15 09:49:21;;;;;;;2.90;2.60;;;;;;;8.28;51.22;98975.81;10390008;28;20238;-37
2023/01/15 09:54:54;;;;;;;3.17;2.87;;;;;;;8.85;49.57;99046.13;10389167;28;20226;-37
2023/01/15 10:00:02;;;;;;;2.63;2.43;;;;;;;9.47;48.46;99057.97;10393717;28;20231;-37
2023/01/15 10:05:16;;;;;;;3.97;3.40;;;;;;;8.66;50.45;99053.75;10400947;28;20236;-37
2023/01/15 10:10:22;;;;;;;2.33;2.17;;;;;;;7.72;51.13;98969.19;10393300;28;20321;-37
2023/01/15 10:15:30;;;;;;;5.83;3.90;;;;;;;8.10;50.67;99049.03;10394107;28;20688;-37
2023/01/15 10:20:34;;;;;;;2.47;2.37;;;;;;;8.47;50.46;99073.00;10393649;28;20229;-37
2023/01/15 10:25:49;;;;;;;2.83;2.60;;;;;;;7.94;50.67;99077.72;10387913;28;20582;-37
2023/01/15 10:30:54;;;;;;;3.47;3.00;;;;;;;8.18;50.59;99081.91;10389259;28;20232;-37
2023/01/15 10:36:09;;;;;;;3.70;3.10;;;;;;;6.73;51.73;98992.47;10395767;28;20240;-37
2023/01/15 10:41:26;;;;;;;3.33;2.53;;;;;;;7.31;51.14;99044.22;10375432;28;20245;-37
2023/01/15 10:46:32;;;;;;;35.33;21.20;;;;;;;7.43;50.46;99084.53;10389266;28;20240;-37
2023/01/15 10:52:06;;;;;;;4.20;3.77;;;;;;;8.23;49.55;99111.50;10385334;28;20752;-37
2023/01/15 10:57:27;;;;;;;2.70;2.50;;;;;;;7.39;49.51;99083.22;10387827;28;20281;-38
2023/01/15 11:06:22;;;;;;;2.60;2.40;;;;;;;4.51;56.92;98911.09;10578990;27;20867;-63
2023/01/15 11:22:18;;;;;;;3.00;2.80;;;;;;;4.71;56.13;98976.00;10510710;28;20238;-64
2023/01/15 11:27:24;;;;;;;2.40;2.30;;;;;;;5.24;55.80;99013.56;10511832;28;20233;-63
2023/01/15 11:32:32;;;;;;;2.20;2.10;;;;;;;4.04;57.16;98939.00;10513766;28;20665;-64
2023/01/15 11:37:34;;;;;;;2.40;2.20;;;;;;;4.74;56.53;98996.03;10509679;28;20372;-63
2023/01/15 11:53:22;;;;;;;2.43;2.33;;;;;;;5.59;55.71;99040.72;10512015;28;20231;-65
2023/01/15 11:58:25;;;;;;;3.50;2.10;;;;;;;4.03;57.22;98985.78;10507561;28;20814;-64
2023/01/15 12:03:33;;;;;;;3.70;3.33;;;;;;;5.79;54.80;99030.56;10508301;28;20237;-64
2023/01/15 12:08:50;;;;;;;2.80;2.60;;;;;;;5.94;54.82;99046.59;10516310;28;20303;-63
2023/01/15 12:14:04;;;;;;;3.20;2.57;;;;;;;6.02;53.95;99040.41;10504245;28;20603;-63
2023/01/15 12:19:32;;;;;;;2.50;2.30;;;;;;;5.53;54.55;99073.22;10483906;28;20227;-64
2023/01/15 12:24:55;;;;;;;3.97;2.47;;;;;;;6.01;53.54;99068.81;10485356;28;20293;-63
2023/01/15 12:30:16;;;;;;;2.87;2.63;;;;;;;6.33;52.25;99074.97;10483244;28;20234;-64
2023/01/15 12:35:28;;;;;;;2.70;2.33;;;;;;;6.64;51.89;99074.13;10482994;28;20226;-64
2023/01/15 12:40:42;;;;;;;3.90;2.77;;;;;;;5.40;52.98;99083.53;10476070;28;20231;-64
2023/01/15 12:45:56;;;;;;;3.23;2.40;;;;;;;6.24;52.44;99089.28;10484036;28;20235;-63
2023/01/15 12:51:01;;;;;;;3.73;2.63;;;;;;;5.84;53.09;99099.91;10478890;28;20252;-64
2023/01/15 12:56:17;;;;;;;3.00;2.30;;;;;;;5.68;52.90;99097.28;10481362;28;20230;-63
2023/01/15 13:01:36;;;;;;;2.40;2.30;;;;;;;5.32;53.34;99109.06;10479195;28;20278;-64
2023/01/15 13:06:45;;;;;;;3.73;2.37;;;;;;;6.08;53.74;99090.19;10480961;28;20231;-61
2023/01/15 13:11:46;;;;;;;2.50;2.13;;;;;;;6.01;53.46;99084.75;10478900;28;20231;-63
2023/01/15 13:16:57;;;;;;;3.60;2.33;;;;;;;5.31;53.77;99091.47;10480532;28;20232;-63
2023/01/15 13:22:06;;;;;;;2.10;2.00;;;;;;;6.62;52.82;99087.59;10483985;28;20721;-66
2023/01/15 13:27:26;;;;;;;2.30;2.10;;;;;;;6.36;52.65;99071.97;10479632;28;20616;-64
2023/01/15 13:32:33;;;;;;;2.20;2.03;;;;;;;6.05;53.74;99082.56;10471178;28;20235;-64
2023/01/15 13:37:39;;;;;;;2.53;2.33;;;;;;;3.83;55.52;98995.00;10477633;28;20235;-63
2023/01/15 13:42:46;;;;;;;2.63;2.30;;;;;;;5.51;52.40;99091.16;10471390;28;20243;-64
2023/01/15 13:47:51;;;;;;;2.40;2.20;;;;;;;6.58;52.99;99094.28;10477930;28;20601;-64
2023/01/15 13:53:11;;;;;;;2.50;2.30;;;;;;;6.35;53.49;99117.31;10475351;28;20225;-64
2023/01/15 13:58:21;;;;;;;3.90;3.03;;;;;;;6.69;53.16;99110.84;10480404;28;20226;-64
2023/01/15 14:03:27;;;;;;;2.87;2.63;;;;;;;5.75;55.04;99148.69;10478069;28;20238;-64
2023/01/15 14:08:43;;;;;;;3.90;2.60;;;;;;;7.23;52.95;99105.50;10478804;28;20818;-64
2023/01/15 14:14:01;;;;;;;5.03;2.40;;;;;;;5.43;56.13;99118.50;10471371;28;20227;-65
2023/01/15 14:19:29;;;;;;;2.87;2.13;;;;;;;5.56;56.45;99104.72;10479639;28;20241;-64
2023/01/15 14:24:57;;;;;;;3.90;2.57;;;;;;;6.62;54.30;99084.94;10474603;28;20253;-64
2023/01/15 14:30:23;;;;;;;2.30;2.20;;;;;;;6.00;55.22;99087.56;10478671;28;20735;-63
2023/01/15 14:35:26;;;;;;;2.70;2.30;;;;;;;5.49;55.05;99112.53;10475759;28;20223;-63
2023/01/15 14:40:33;;;;;;;3.53;2.43;;;;;;;6.16;54.33;99063.59;10477367;28;20619;-63
2023/01/15 14:45:41;;;;;;;2.50;2.30;;;;;;;6.51;52.94;99072.03;10472747;28;20322;-62
2023/01/15 14:50:43;;;;;;;3.30;2.50;;;;;;;7.01;52.11;99075.22;10479180;28;20683;-63
2023/01/15 14:56:01;;;;;;;3.07;2.50;;;;;;;7.15;51.93;99092.25;10477025;28;20701;-65
2023/01/15 15:01:31;;;;;;;2.57;2.37;;;;;;;5.98;54.01;99100.19;10459791;28;20241;-63
2023/01/15 15:06:43;;;;;;;2.70;2.27;;;;;;;5.97;53.30;99095.88;10476980;28;20724;-62
2023/01/15 15:17:19;;;;;;;2.70;2.50;;;;;;;6.60;53.08;99063.03;10480505;28;20237;-63
2023/01/15 15:22:25;;;;;;;2.10;2.00;;;;;;;6.41;54.19;99071.44;10473089;28;20228;-62
2023/01/15 15:27:27;;;;;;;3.23;2.70;;;;;;;5.99;53.80;99076.13;10476130;28;20242;-64
2023/01/15 15:32:29;;;;;;;7.20;4.00;;;;;;;6.39;52.98;99066.28;10472071;28;20246;-64
2023/01/15 15:37:33;;;;;;;4.73;2.90;;;;;;;6.84;52.28;99101.13;10471626;28;20239;-64
2023/01/15 15:53:31;;;;;;;2.37;2.17;;;;;;;7.13;50.89;99084.44;10481440;28;20246;-66
2023/01/15 15:58:36;;;;;;;3.43;2.47;;;;;;;7.02;50.58;99107.97;10484211;28;20270;-64
2023/01/15 16:03:46;;;;;;;3.73;2.60;;;;;;;5.93;51.26;99123.78;10484209;28;20231;-65
2023/01/15 16:08:53;;;;;;;2.40;2.20;;;;;;;7.09;50.93;99099.13;10479641;28;20240;-64
2023/01/15 16:13:57;;;;;;;3.20;2.77;;;;;;;6.19;50.79;99107.56;10487421;28;20331;-63
2023/01/15 16:19:01;;;;;;;2.30;2.10;;;;;;;5.36;53.45;99095.47;10481616;28;20236;-63
2023/01/15 16:24:05;;;;;;;3.27;3.00;;;;;;;5.25;52.95;99101.94;10476989;28;20220;-63
2023/01/15 16:29:19;;;;;;;2.40;2.30;;;;;;;6.83;52.08;99050.78;10480931;28;20239;-64
2023/01/15 16:34:25;;;;;;;3.03;2.60;;;;;;;5.47;53.29;99095.13;10478985;28;20231;-65
2023/01/15 16:39:35;;;;;;;2.90;2.60;;;;;;;5.44;53.37;99114.03;10479266;28;20234;-63
2023/01/15 16:44:49;;;;;;;3.87;3.13;;;;;;;5.05;52.66;99089.00;10479484;28;20238;-64
2023/01/15 16:49:51;;;;;;;4.47;2.80;;;;;;;6.28;52.38;99095.09;10484538;28;20665;-63
2023/01/15 16:54:54;;;;;;;3.67;2.60;;;;;;;5.01;53.41;99100.09;10484428;28;20767;-63
2023/01/15 17:00:01;;;;;;;3.63;2.47;;;;;;;5.37;53.00;99110.38;10479408;28;20235;-64
2023/01/15 17:05:19;;;;;;;4.83;2.60;;;;;;;6.65;51.45;99077.59;10475758;28;20238;-63
2023/01/15 17:10:30;;;;;;;3.13;2.93;;;;;;;4.89;54.14;99095.13;10483419;28;20234;-62
2023/01/15 17:15:36;;;;;;;3.63;2.30;;;;;;;5.16;53.02;99089.69;10483002;28;20219;-63
2023/01/15 17:20:38;;;;;;;2.60;2.40;;;;;;;5.82;53.00;99053.25;10480736;28;20689;-63
2023/01/15 17:25:40;;;;;;;2.27;2.07;;;;;;;4.81;54.00;99063.31;10475834;28;20239;-64
2023/01/15 17:30:41;;;;;;;3.37;2.30;;;;;;;5.36;53.35;99093.66;10476225;28;20258;-62
2023/01/15 17:35:47;;;;;;;2.23;2.10;;;;;;;4.57;52.75;99085.28;10478152;28;20232;-62
2023/01/15 17:40:50;;;;;;;3.60;2.50;;;;;;;5.98;51.74;99070.97;10470610;28;20246;-63
2023/01/15 17:45:52;;;;;;;2.80;2.60;;;;;;;5.25;52.46;99083.34;10481464;28;20610;-63
2023/01/15 17:50:54;;;;;;;4.83;2.90;;;;;;;6.15;51.47;99046.00;10483745;28;20231;-64
2023/01/15 18:06:45;;;;;;;2.50;2.30;;;;;;;5.36;53.15;99027.31;10482495;28;20315;-63
2023/01/15 18:11:46;;;;;;;2.37;2.27;;;;;;;4.58;54.38;99020.72;10476309;28;20679;-63
2023/01/15 18:16:48;;;;;;;3.10;2.80;;;;;;;4.77;53.65;99030.16;10481914;28;20234;-63
2023/01/15 18:21:50;;;;;;;3.90;2.17;;;;;;;5.48;52.44;99025.13;10472886;28;20689;-63
2023/01/15 18:26:51;;;;;;;3.40;2.30;;;;;;;4.37;53.67;99000.81;10478525;28;20230;-62
2023/01/15 18:31:53;;;;;;;3.60;2.90;;;;;;;3.84;53.87;98992.19;10473440;28;20227;-63
2023/01/15 18:36:55;;;;;;;2.30;2.17;;;;;;;4.26;53.97;99003.75;10472143;28;20880;-61
2023/01/15 18:47:08;;;;;;;2.90;2.17;;;;;;;5.30;52.84;98991.69;10478711;28;20243;-63
2023/01/15 18:57:33;;;;;;;4.20;3.27;;;;;;;5.27;51.51;98984.06;10474858;28;20247;-64
2023/01/15 19:02:34;;;;;;;2.77;2.40;;;;;;;4.79;52.47;98998.19;10471434;28;20261;-64
2023/01/15 19:07:37;;;;;;;2.37;2.27;;;;;;;4.30;52.08;98991.00;10478732;28;20235;-65
2023/01/15 19:12:39;;;;;;;3.37;2.60;;;;;;;5.92;49.66;98981.38;10477957;28;20365;-65
2023/01/15 19:23:02;;;;;;;3.40;2.40;;;;;;;6.56;49.19;98949.25;10481119;28;20234;-65
2023/01/15 19:28:09;;;;;;;4.93;2.90;;;;;;;6.47;49.26;98937.84;10479133;28;20231;-63
2023/01/15 19:33:12;;;;;;;4.17;3.77;;;;;;;5.16;51.03;98991.53;10485878;28;20227;-63
2023/01/15 19:38:15;;;;;;;3.73;2.27;;;;;;;5.63;49.92;98961.59;10486561;28;20242;-64
2023/01/15 19:54:01;;;;;;;12.37;5.63;;;;;;;5.79;49.42;98942.94;10480150;28;20234;-63
2023/01/15 19:59:03;;;;;;;15.47;6.77;;;;;;;6.24;47.99;98962.59;10482384;28;20231;-63
2023/01/15 20:04:05;;;;;;;6.20;3.63;;;;;;;6.24;47.99;98957.28;10481156;28;20322;-64
2023/01/15 20:09:07;;;;;;;3.27;2.87;;;;;;;5.69;48.81;98977.66;10489477;28;20235;-63
2023/01/15 20:14:08;;;;;;;8.67;3.00;;;;;;;4.91;51.08;98926.13;10485710;28;20227;-62
2023/01/15 20:19:10;;;;;;;3.80;2.87;;;;;;;4.42;50.38;98906.78;10486280;28;20645;-63
2023/01/15 20:24:12;;;;;;;4.77;2.30;;;;;;;5.24;50.10;98907.47;10481033;28;20231;-64
2023/01/15 20:29:14;;;;;;;3.03;2.60;;;;;;;5.56;49.85;98910.16;10485033;28;20227;-64
2023/01/15 20:34:15;;;;;;;5.37;3.30;;;;;;;5.97;48.21;98886.88;10484829;28;20242;-65
2023/01/15 20:39:17;;;;;;;3.07;2.77;;;;;;;4.69;49.85;98892.34;10484127;28;20234;-62
2023/01/15 20:49:39;;;;;;;4.00;2.93;;;;;;;3.49;50.44;98768.34;10485352;28;20661;-63
2023/01/15 20:54:40;;;;;;;3.70;3.03;;;;;;;7.18;46.35;98863.06;10487304;28;20235;-64
2023/01/15 20:59:42;;;;;;;5.07;3.43;;;;;;;5.93;47.80;98906.03;10484391;28;20254;-63
2023/01/15 21:04:44;;;;;;;5.47;2.90;;;;;;;6.93;46.10;98838.56;10482127;28;20235;-64
2023/01/15 21:09:45;;;;;;;3.67;3.33;;;;;;;6.82;46.55;98847.84;10475833;28;20245;-64
2023/01/15 21:14:47;;;;;;;4.63;2.60;;;;;;;6.29;47.21;98868.25;10480193;28;20230;-64
2023/01/15 21:19:49;;;;;;;4.70;2.80;;;;;;;6.83;45.86;98854.78;10485970;28;20224;-66
2023/01/15 21:24:50;;;;;;;6.77;2.70;;;;;;;5.27;47.82;98861.22;10477391;28;20310;-65
2023/01/15 21:29:55;;;;;;;4.40;3.03;;;;;;;5.87;46.78;98859.75;10324611;28;20597;-64
2023/01/15 21:34:56;;;;;;;4.20;2.50;;;;;;;6.24;46.59;98832.41;10343853;28;20229;-62
2023/01/15 21:39:58;;;;;;;3.87;2.50;;;;;;;6.65;46.78;98833.03;10363527;28;20232;-63
2023/01/15 21:45:00;;;;;;;5.00;3.17;;;;;;;5.80;47.71;98835.72;10360548;28;20229;-62
2023/01/15 21:50:04;;;;;;;3.47;2.97;;;;;;;4.20;49.11;98732.47;10373456;28;20240;-63
2023/01/15 21:55:06;;;;;;;3.83;2.70;;;;;;;5.84;47.49;98786.59;10360173;28;20684;-62
2023/01/15 22:00:09;;;;;;;6.37;4.40;;;;;;;4.56;48.93;98760.38;10363900;28;20620;-63
2023/01/15 22:05:11;;;;;;;5.07;2.87;;;;;;;6.45;47.11;98759.16;10356999;28;20753;-65
2023/01/15 22:10:13;;;;;;;4.57;3.53;;;;;;;5.78;47.40;98760.75;10356858;28;20264;-61
2023/01/15 22:15:15;;;;;;;3.70;2.57;;;;;;;5.41;47.94;98758.81;10356960;28;20233;-62
2023/01/15 22:20:17;;;;;;;2.97;2.67;;;;;;;6.10;46.92;98758.00;10356266;28;20229;-62
2023/01/15 22:25:18;;;;;;;4.87;2.53;;;;;;;5.22;48.36;98749.50;10356384;28;20605;-62
2023/01/15 22:30:20;;;;;;;3.10;2.80;;;;;;;5.36;47.51;98742.63;10358071;28;20237;-64
2023/01/15 22:35:22;;;;;;;2.73;2.50;;;;;;;5.67;47.26;98738.09;10357402;28;20332;-62
2023/01/15 22:40:23;;;;;;;5.63;3.10;;;;;;;5.39;47.58;98716.56;10356072;28;20267;-62
2023/01/15 22:45:25;;;;;;;2.80;2.60;;;;;;;5.85;46.79;98713.06;10355131;28;20678;-63
2023/01/15 22:50:26;;;;;;;3.03;2.80;;;;;;;4.77;48.35;98712.09;10360708;28;20575;-62
2023/01/15 22:55:28;;;;;;;3.00;2.77;;;;;;;5.46;48.04;98706.88;10351586;28;20232;-64
2023/01/15 23:00:30;;;;;;;3.27;3.07;;;;;;;5.45;47.01;98715.84;10359861;28;20236;-65
2023/01/15 23:05:38;;;;;;;4.47;2.53;;;;;;;4.72;47.52;98699.34;10347305;28;20233;-62
2023/01/15 23:10:44;;;;;;;4.83;3.23;;;;;;;4.51;47.89;98683.25;10352805;28;20242;-61
2023/01/15 23:15:55;;;;;;;3.23;2.50;;;;;;;3.58;49.53;98586.66;10350293;28;20746;-60
2023/01/15 23:21:02;;;;;;;4.23;2.47;;;;;;;6.09;46.46;98664.19;10357626;28;20244;-62
2023/01/15 23:26:06;;;;;;;3.27;2.50;;;;;;;6.46;45.99;98659.78;10351237;28;20232;-61
2023/01/15 23:31:09;;;;;;;3.40;2.60;;;;;;;6.31;45.50;98651.00;10349253;28;20611;-59
2023/01/15 23:36:12;;;;;;;4.03;2.37;;;;;;;5.64;46.23;98696.00;10354015;28;20221;-62
2023/01/15 23:41:17;;;;;;;3.37;3.07;;;;;;;6.41;46.05;98656.84;10348692;28;20263;-63
2023/01/15 23:46:31;;;;;;;3.50;2.40;;;;;;;5.99;46.01;98672.44;10357621;28;20655;-61
2023/01/15 23:51:34;;;;;;;5.70;2.40;;;;;;;6.22;45.99;98651.09;10355278;28;20257;-64
2023/01/15 23:56:36;;;;;;;2.70;2.50;;;;;;;6.46;46.33;98627.91;10350571;28;20236;-62
